Norilsk-Alykel Airport

UOOO · Krasnoyarskiy, 俄罗斯

METAR UOOO · Norilsk-Alykel Airport

5 三月 01:00 LT
23m
罗盘
风向 的 风向 110° Norilsk-Alykel Airport 1/19
风: 8 kt, 3 beaufort

1 kt

7 kt
改变
0 ft 1.000 2.000 3.000 4.000 5.000
Cloud Cloud
FEW 4.100
METAR UOOO 041800Z 11004MPS 9999 FEW041 M12/M15 Q1010 R19/810360 NOSIG RMK QFE741/0988

METAR Norilsk-Alykel Airport - UOOO/NSK

Norilsk-Alykel Airport是,俄罗斯中的中型机场。 该机场位于纬度69,31110和经度87,33220。 该机场有一条跑道: 1/19. 本场的ICAO机场代码为UOOO。 该机场的IATA代码为NSK。 机场在Krasnoyarsk FIR中。

该航空气象观测是针对Norilsk-Alykel Airport在2024年3月5日 01:00, 当地时间进行的。

机场观察

风向为110°,速度为8 kt。

可见度为10 km 或者更多。

有几云在4.100 ft的高度。 没有观察到天花板。

温度为-12 °C,阵风为-22 °C。 露点为-15 °C,相对湿度为79%。 海平面上的气压为1010 hPa (QNH)。

白天

今天,太阳从08:19升起,在18:25降落。 这适用于Norilsk-Alykel Airport,世界夏令时可能有所不同。 当地时间与世界标准时间之间的时差为+7 小时。 当前,没有夏令时有效。

公司介绍

我们没有关于这个机场的公司信息。

体会

到Vliegles.nl去找飞行课程,跳伞和其他飞行体验。 浏览页面,了解Norilsk-Alykel Airport附近所有可用的活动。 你也可以使用搜索功能来寻找你所在地附近的特定飞行课程、跳伞或其他飞行体验。

警示语

跑道状况 RWY 19: 压实或滚雪, 污染 10% 或更少, 存款是3 mm深, 摩擦系数 0.6

跑道

Id 标题 侧风 逆风 侧风 %
1/19 032°-212° 7 kt 1 kt 98 %

逆风成分最大的方向会被突出显示,并用于横风计算。 这并不一定意味着这个方向在使用。

乌云

4.100 ft FEW 几云

温度 & 天气

温度 -12 °C
露点 -15 °C
相对湿度 79%
风寒 -22 °C
Kp-index 0 (0-9)

跑道状况

19 压实或滚雪, 污染 10% 或更少, 存款是3 mm深, 摩擦系数 0.6

评论

QFE741/0988未知降水 结束于 74, 结束于

白天

日出
08:19 (6:52)
中午
13:22
日落
18:25

小工具

你想在你的网站上有一个关于Norilsk-Alykel Airport的当前航空天气(METAR)的小部件吗?

显示HTML代码
?>